Time;durP1;ratioP1;P1;durP2;ratioP2;P2;SDS_P1;SDS_P2;PMS_P1;PMS_P2;Temp;Humidity;BMP_temperature;BMP_pressure;BME280_temperature;BME280_humidity;BME280_pressure;Samples;Min_cycle;Max_cycle;Signal;HPM_P1;HPM_P2
2021/12/06 00:02:18;;;;;;;11.60;4.45;;;2.80;99.90;;;;;;5023928;28;20022;-66
2021/12/06 00:04:44;;;;;;;7.82;3.78;;;2.80;99.90;;;;;;5021984;28;20505;-66
2021/12/06 00:07:15;;;;;;;9.77;3.72;;;3.00;99.90;;;;;;5024002;28;20095;-66
2021/12/06 00:09:40;;;;;;;12.27;4.47;;;2.90;99.90;;;;;;5022449;28;20083;-66
2021/12/06 00:12:07;;;;;;;10.63;4.13;;;2.80;99.90;;;;;;5020590;28;20398;-66
2021/12/06 00:14:35;;;;;;;10.23;3.88;;;2.70;99.90;;;;;;5026855;28;20029;-67
2021/12/06 00:17:04;;;;;;;10.07;4.63;;;2.70;99.90;;;;;;5018341;28;20069;-67
2021/12/06 00:19:30;;;;;;;8.38;3.40;;;2.60;99.90;;;;;;5022864;28;20069;-66
2021/12/06 00:21:58;;;;;;;12.73;5.22;;;2.50;99.90;;;;;;5015529;28;20029;-66
2021/12/06 00:24:24;;;;;;;12.43;4.28;;;2.40;99.90;;;;;;5027144;28;20053;-65
2021/12/06 00:26:50;;;;;;;9.45;3.78;;;2.40;99.90;;;;;;5026444;28;20037;-65
2021/12/06 00:29:16;;;;;;;10.27;4.00;;;2.30;99.90;;;;;;5028171;28;20084;-66
2021/12/06 00:31:42;;;;;;;15.30;4.20;;;2.10;99.90;;;;;;5020805;28;20033;-65
2021/12/06 00:34:12;;;;;;;8.23;3.03;;;2.10;99.90;;;;;;5021486;28;20029;-65
2021/12/06 00:36:40;;;;;;;13.15;4.20;;;2.00;99.90;;;;;;5020821;28;20057;-65
2021/12/06 00:39:10;;;;;;;10.15;4.10;;;1.90;99.90;;;;;;5020865;28;20022;-65
2021/12/06 00:41:36;;;;;;;;;;;1.80;99.90;;;;;;5022669;28;20120;-65
2021/12/06 00:44:02;;;;;;;9.45;4.18;;;1.70;99.90;;;;;;5023573;28;19995;-65
2021/12/06 00:46:27;;;;;;;11.05;3.30;;;1.60;99.90;;;;;;5022567;28;20512;-65
2021/12/06 00:48:53;;;;;;;8.25;3.10;;;1.50;99.90;;;;;;5027143;28;20025;-65
2021/12/06 00:51:19;;;;;;;8.80;3.58;;;1.40;99.90;;;;;;5027622;28;20040;-65
2021/12/06 00:53:45;;;;;;;8.50;3.67;;;1.30;99.90;;;;;;5030113;28;20025;-65
2021/12/06 00:56:12;;;;;;;11.73;4.85;;;1.10;99.90;;;;;;5028265;28;20475;-65
2021/12/06 00:58:38;;;;;;;9.35;3.50;;;1.00;99.90;;;;;;5030707;28;20025;-65
2021/12/06 01:01:04;;;;;;;8.68;3.65;;;0.90;99.90;;;;;;5029537;28;20043;-65
2021/12/06 01:03:34;;;;;;;11.70;4.53;;;0.90;99.90;;;;;;5030786;28;20121;-65
2021/12/06 01:06:00;;;;;;;9.50;4.82;;;0.90;99.90;;;;;;5028453;28;20042;-65
2021/12/06 01:08:25;;;;;;;7.55;3.00;;;1.00;99.90;;;;;;5024755;28;20485;-65
2021/12/06 01:10:52;;;;;;;8.43;4.18;;;0.80;99.90;;;;;;5028210;28;20030;-65
2021/12/06 01:13:19;;;;;;;6.65;3.42;;;0.70;99.90;;;;;;5030450;28;20100;-65
2021/12/06 01:15:44;;;;;;;12.23;4.60;;;0.50;99.90;;;;;;5032483;28;20033;-65
2021/12/06 01:18:13;;;;;;;7.00;4.10;;;0.40;99.90;;;;;;5031337;28;20071;-65
2021/12/06 01:20:50;;;;;;;7.97;3.80;;;0.20;99.90;;;;;;5036985;28;20380;-65
2021/12/06 01:23:20;;;;;;;12.07;3.55;;;0.30;99.90;;;;;;5036046;28;20079;-65
2021/12/06 01:31:35;;;;;;;7.40;3.20;;;0.40;99.90;;;;;;5030266;28;20026;-65
2021/12/06 01:39:11;;;;;;;6.00;2.90;;;-0.10;99.90;;;;;;5025860;28;20028;-65
2021/12/06 01:41:40;;;;;;;6.80;3.60;;;-0.10;99.90;;;;;;5028236;28;20025;-65
2021/12/06 01:44:23;;;;;;;6.75;2.53;;;0.00;99.90;;;;;;5025406;28;20732;-65
2021/12/06 01:46:56;;;;;;;6.60;2.95;;;0.00;99.90;;;;;;5025665;28;20049;-65
2021/12/06 01:49:24;;;;;;;7.63;4.05;;;0.20;99.90;;;;;;5024397;28;20053;-65
2021/12/06 01:51:52;;;;;;;7.95;2.53;;;0.20;99.90;;;;;;5026018;28;20517;-65
2021/12/06 01:54:19;;;;;;;5.53;2.83;;;0.10;99.90;;;;;;5029504;28;20069;-65
2021/12/06 01:56:45;;;;;;;3.88;2.33;;;0.30;99.90;;;;;;5019804;28;20026;-65
2021/12/06 01:59:11;;;;;;;11.95;2.92;;;0.20;99.90;;;;;;5028825;28;20029;-65
2021/12/06 02:01:37;;;;;;;8.13;4.10;;;0.50;99.90;;;;;;5029320;28;20489;-65
2021/12/06 02:04:04;;;;;;;10.65;4.30;;;0.70;99.90;;;;;;5026769;28;20022;-65
2021/12/06 02:06:30;;;;;;;6.80;4.18;;;0.80;99.90;;;;;;5023582;28;20114;-65
2021/12/06 02:08:56;;;;;;;6.40;3.17;;;0.70;99.90;;;;;;5026140;28;20033;-65
2021/12/06 02:11:25;;;;;;;8.88;3.92;;;0.60;99.90;;;;;;5029035;28;20500;-65
2021/12/06 02:14:05;;;;;;;5.45;2.72;;;0.60;99.90;;;;;;5027383;28;20105;-65
2021/12/06 02:16:53;;;;;;;5.45;2.92;;;0.60;99.90;;;;;;5024259;28;20116;-65
2021/12/06 02:19:19;;;;;;;7.18;3.45;;;0.30;99.90;;;;;;5017264;28;20075;-65
2021/12/06 02:21:46;;;;;;;7.43;3.67;;;0.00;99.90;;;;;;5024381;28;20056;-65
2021/12/06 02:24:12;;;;;;;10.23;4.75;;;-0.20;99.90;;;;;;5020244;28;20036;-65
2021/12/06 02:26:42;;;;;;;7.55;2.70;;;-0.40;99.90;;;;;;5024264;28;20022;-65
2021/12/06 02:29:09;;;;;;;7.65;3.50;;;-0.40;99.90;;;;;;5027037;28;20401;-65
2021/12/06 02:31:35;;;;;;;8.65;4.53;;;-0.40;99.90;;;;;;5023677;28;20557;-65
2021/12/06 02:34:01;;;;;;;6.45;3.33;;;-0.40;99.90;;;;;;5025077;28;20083;-65
2021/12/06 02:36:27;;;;;;;11.13;3.75;;;-0.30;99.90;;;;;;5028697;28;20029;-65
2021/12/06 02:38:53;;;;;;;6.78;3.55;;;-0.30;99.90;;;;;;5020058;28;20026;-65
2021/12/06 02:41:19;;;;;;;6.25;3.05;;;-0.10;99.90;;;;;;5028773;28;20029;-65
2021/12/06 02:43:46;;;;;;;8.68;3.53;;;-0.20;99.90;;;;;;5023077;28;20359;-65
2021/12/06 02:46:12;;;;;;;7.68;4.32;;;-0.20;99.90;;;;;;5024319;28;20040;-65
2021/12/06 02:48:38;;;;;;;5.90;3.10;;;-0.10;99.90;;;;;;5023367;28;20423;-65
2021/12/06 02:51:05;;;;;;;11.40;3.83;;;-0.10;99.90;;;;;;5025315;28;20033;-65
2021/12/06 02:53:35;;;;;;;8.45;3.75;;;-0.20;99.90;;;;;;5028203;28;20021;-65
2021/12/06 02:56:05;;;;;;;8.30;3.42;;;-0.10;99.90;;;;;;5024595;28;20033;-65
2021/12/06 03:01:05;;;;;;;7.72;3.58;;;0.30;99.90;;;;;;5014304;28;20034;-65
2021/12/06 03:03:31;;;;;;;9.07;4.40;;;0.20;99.90;;;;;;5026716;28;20381;-65
2021/12/06 03:05:57;;;;;;;7.03;3.15;;;0.00;99.90;;;;;;5026796;28;20045;-65
2021/12/06 03:08:49;;;;;;;9.82;4.55;;;0.10;99.90;;;;;;5026745;28;20567;-65
2021/12/06 03:11:20;;;;;;;12.55;4.63;;;0.10;99.90;;;;;;5033721;28;20018;-65
2021/12/06 03:13:46;;;;;;;9.23;3.47;;;-0.10;99.90;;;;;;5019083;28;20033;-65
2021/12/06 03:16:12;;;;;;;8.32;4.25;;;-0.20;99.90;;;;;;5021267;28;20038;-65
2021/12/06 03:18:41;;;;;;;8.55;4.57;;;-0.20;99.90;;;;;;5031280;28;20033;-65
2021/12/06 03:21:06;;;;;;;9.43;4.68;;;-0.10;99.90;;;;;;5027714;28;20073;-65
2021/12/06 03:23:32;;;;;;;6.93;3.13;;;0.20;99.90;;;;;;5031965;28;20029;-65
2021/12/06 03:25:58;;;;;;;9.50;5.35;;;0.20;99.90;;;;;;5030958;28;20029;-65
2021/12/06 03:28:23;;;;;;;13.20;5.45;;;0.10;99.90;;;;;;5025336;28;20018;-65
2021/12/06 03:30:49;;;;;;;9.00;4.35;;;0.00;99.90;;;;;;5029459;28;20444;-65
2021/12/06 03:33:14;;;;;;;8.80;3.35;;;0.00;99.90;;;;;;5023596;28;20076;-65
2021/12/06 03:35:40;;;;;;;10.40;4.88;;;0.00;99.90;;;;;;5032722;28;20025;-65
2021/12/06 03:38:05;;;;;;;8.63;3.90;;;0.00;99.90;;;;;;5026470;28;20602;-65
2021/12/06 03:40:31;;;;;;;9.00;4.68;;;-0.10;99.90;;;;;;5025531;28;20022;-65
2021/12/06 03:42:57;;;;;;;8.15;4.32;;;-0.10;99.90;;;;;;5027882;28;20017;-65
2021/12/06 03:45:22;;;;;;;9.77;3.45;;;-0.10;99.90;;;;;;5027036;28;20021;-65
2021/12/06 03:47:48;;;;;;;12.60;4.97;;;-0.20;99.90;;;;;;5031636;28;20105;-65
2021/12/06 03:50:14;;;;;;;11.35;4.50;;;-0.20;99.90;;;;;;5019712;28;20701;-65
2021/12/06 03:52:40;;;;;;;11.45;4.35;;;-0.10;99.90;;;;;;5031832;28;20017;-65
2021/12/06 03:55:07;;;;;;;11.90;3.58;;;-0.20;99.90;;;;;;5028557;28;20112;-65
2021/12/06 03:57:33;;;;;;;8.15;4.75;;;-0.20;99.90;;;;;;5029098;28;20546;-65
2021/12/06 03:59:59;;;;;;;8.85;4.38;;;-0.20;99.90;;;;;;5029805;28;20104;-65
2021/12/06 04:02:29;;;;;;;15.32;4.82;;;-0.30;99.90;;;;;;5027795;28;20711;-65
2021/12/06 04:04:55;;;;;;;12.10;4.78;;;-0.30;99.90;;;;;;5030054;28;20125;-65
2021/12/06 04:07:22;;;;;;;10.70;5.40;;;-0.30;99.90;;;;;;5024405;28;20046;-65
2021/12/06 04:09:48;;;;;;;7.55;4.28;;;-0.30;99.90;;;;;;5031613;28;20025;-65
2021/12/06 04:12:15;;;;;;;8.98;4.15;;;-0.40;99.90;;;;;;5027434;28;20018;-65
2021/12/06 04:14:41;;;;;;;8.48;4.63;;;-0.40;99.90;;;;;;5031315;28;20075;-65
2021/12/06 04:17:07;;;;;;;4.25;2.53;;;-0.50;99.90;;;;;;5028451;28;20033;-65
2021/12/06 04:19:33;;;;;;;6.88;3.55;;;-0.60;99.90;;;;;;5030434;28;20487;-65
2021/12/06 04:21:59;;;;;;;7.22;3.75;;;-0.70;99.90;;;;;;5017380;28;20029;-65
2021/12/06 04:24:25;;;;;;;6.40;3.10;;;-0.60;99.90;;;;;;5024036;28;20470;-65
2021/12/06 04:26:50;;;;;;;6.65;4.00;;;-0.60;99.90;;;;;;5030018;28;20393;-65
2021/12/06 04:29:17;;;;;;;10.55;3.55;;;-0.60;99.90;;;;;;5018322;28;20052;-65
2021/12/06 04:31:50;;;;;;;12.98;3.17;;;-0.60;99.90;;;;;;5021884;28;20041;-65
2021/12/06 04:34:16;;;;;;;11.25;4.78;;;-0.80;99.90;;;;;;5028333;28;20075;-65
2021/12/06 04:36:43;;;;;;;7.07;2.42;;;-0.90;99.90;;;;;;5029541;28;20025;-65
2021/12/06 04:39:12;;;;;;;6.95;3.72;;;-0.90;99.90;;;;;;5030098;28;20028;-65
2021/12/06 04:41:37;;;;;;;11.15;3.63;;;-1.10;99.90;;;;;;5029440;28;20025;-65
2021/12/06 04:44:04;;;;;;;8.68;3.95;;;-1.30;99.90;;;;;;5030258;28;20017;-65
2021/12/06 04:46:30;;;;;;;12.77;4.45;;;-1.30;99.90;;;;;;5024262;28;20101;-65
2021/12/06 04:48:56;;;;;;;7.88;4.05;;;-1.20;99.90;;;;;;5028898;28;20102;-65
2021/12/06 04:51:22;;;;;;;12.52;5.53;;;-1.10;99.90;;;;;;5027303;28;20032;-65
2021/12/06 04:53:48;;;;;;;9.68;5.38;;;-1.00;99.90;;;;;;5030251;28;20021;-64
2021/12/06 04:56:17;;;;;;;10.70;5.03;;;-1.00;99.90;;;;;;5030267;28;20072;-65
2021/12/06 04:59:24;;;;;;;6.70;3.58;;;-1.10;99.90;;;;;;5030295;28;20028;-66
2021/12/06 05:01:52;;;;;;;10.85;5.40;;;-1.10;99.90;;;;;;5027845;28;20088;-65
2021/12/06 05:04:28;;;;;;;8.38;3.53;;;-1.10;99.90;;;;;;5027360;28;20049;-65
2021/12/06 05:07:01;;;;;;;8.30;3.90;;;-0.90;99.90;;;;;;5028677;28;20049;-64
2021/12/06 05:09:31;;;;;;;6.35;3.45;;;-0.80;99.90;;;;;;5028303;28;20040;-64
2021/12/06 05:11:57;;;;;;;8.88;4.70;;;-0.60;99.90;;;;;;5029706;28;20078;-64
2021/12/06 05:14:24;;;;;;;8.00;3.42;;;-0.30;99.90;;;;;;5029134;28;20743;-64
2021/12/06 05:16:51;;;;;;;10.63;4.72;;;-0.30;99.90;;;;;;5028385;28;20021;-65
2021/12/06 05:19:17;;;;;;;12.57;5.53;;;-0.30;99.90;;;;;;5026714;28;20024;-65
2021/12/06 05:21:43;;;;;;;10.02;4.18;;;-0.20;99.90;;;;;;5030210;28;20024;-65
2021/12/06 05:24:09;;;;;;;10.52;4.03;;;-0.30;99.90;;;;;;5027689;28;20025;-65
2021/12/06 05:26:36;;;;;;;7.18;3.78;;;-0.20;99.90;;;;;;5029966;28;20497;-65
2021/12/06 05:29:04;;;;;;;8.38;4.25;;;-0.20;99.90;;;;;;5028366;28;20071;-65
2021/12/06 05:31:30;;;;;;;17.05;5.03;;;-0.10;99.90;;;;;;5027981;28;20018;-65
2021/12/06 05:34:02;;;;;;;8.93;4.57;;;0.00;99.90;;;;;;5029985;28;20084;-65
2021/12/06 05:36:28;;;;;;;7.18;3.72;;;0.00;99.90;;;;;;5024864;28;20050;-65
2021/12/06 05:38:54;;;;;;;8.13;4.38;;;0.10;99.90;;;;;;5025709;28;20056;-65
2021/12/06 05:41:21;;;;;;;9.38;3.95;;;0.20;99.90;;;;;;5025556;28;20025;-64
2021/12/06 05:43:47;;;;;;;7.03;3.92;;;0.20;99.90;;;;;;5029177;28;20470;-64
2021/12/06 05:46:14;;;;;;;5.18;2.60;;;0.30;99.90;;;;;;5025111;28;20029;-66
2021/12/06 05:48:40;;;;;;;8.05;4.15;;;0.30;99.90;;;;;;5027924;28;20044;-65
2021/12/06 05:51:06;;;;;;;8.00;4.05;;;0.10;99.90;;;;;;5028525;28;20052;-65
2021/12/06 05:53:32;;;;;;;7.50;3.22;;;0.00;99.90;;;;;;5025792;28;20029;-64
2021/12/06 05:55:58;;;;;;;11.48;3.90;;;0.00;99.90;;;;;;5020299;28;20501;-64
2021/12/06 05:58:26;;;;;;;8.85;3.95;;;0.00;99.90;;;;;;5027146;28;20018;-64
2021/12/06 06:00:53;;;;;;;11.20;4.53;;;-0.10;99.90;;;;;;5026734;28;20548;-64
2021/12/06 06:03:19;;;;;;;9.75;4.20;;;-0.10;99.90;;;;;;5023737;28;20029;-64
2021/12/06 06:05:52;;;;;;;10.25;4.88;;;-0.40;99.90;;;;;;5026300;28;20133;-64
2021/12/06 06:08:18;;;;;;;22.70;5.20;;;-0.60;99.90;;;;;;5025403;28;20018;-64
2021/12/06 06:10:45;;;;;;;11.82;5.03;;;-0.70;99.90;;;;;;5027396;28;20016;-64
2021/12/06 06:13:11;;;;;;;7.53;4.25;;;-0.70;99.90;;;;;;5028579;28;20420;-64
2021/12/06 06:15:37;;;;;;;6.30;3.38;;;-0.90;99.90;;;;;;5029931;28;20032;-66
2021/12/06 06:18:05;;;;;;;7.72;4.38;;;-0.90;99.90;;;;;;5029294;28;20370;-65
2021/12/06 06:20:36;;;;;;;5.25;3.17;;;-1.00;99.90;;;;;;5029536;28;20044;-66
2021/12/06 06:23:01;;;;;;;7.82;3.42;;;-1.00;99.90;;;;;;5026351;28;20535;-65
2021/12/06 06:25:28;;;;;;;7.53;3.63;;;-1.00;99.90;;;;;;5024471;28;20022;-65
2021/12/06 06:27:54;;;;;;;15.82;3.70;;;-0.80;99.90;;;;;;5028267;28;20021;-65
2021/12/06 06:30:19;;;;;;;7.13;4.00;;;-0.80;99.90;;;;;;5024536;28;20052;-65
2021/12/06 06:32:46;;;;;;;11.30;4.55;;;-0.70;99.90;;;;;;5025466;28;20033;-65
2021/12/06 06:35:14;;;;;;;6.40;3.53;;;-0.70;99.90;;;;;;5013042;28;20125;-65
2021/12/06 06:37:40;;;;;;;8.95;4.13;;;-0.80;99.90;;;;;;5020456;28;20040;-65
2021/12/06 06:40:07;;;;;;;10.85;3.67;;;-0.80;99.90;;;;;;5024321;28;20025;-66
2021/12/06 06:42:32;;;;;;;12.07;4.55;;;-0.80;99.90;;;;;;5029465;28;20100;-66
2021/12/06 06:44:58;;;;;;;8.00;4.07;;;-0.90;99.90;;;;;;5020704;28;20461;-66
2021/12/06 06:47:24;;;;;;;8.55;3.97;;;-1.00;99.90;;;;;;5026083;28;20022;-66
2021/12/06 06:49:50;;;;;;;7.68;4.20;;;-1.00;99.90;;;;;;5021781;28;20596;-66
2021/12/06 06:52:16;;;;;;;6.47;3.10;;;-1.10;99.90;;;;;;5019871;28;20529;-66
2021/12/06 06:54:42;;;;;;;9.20;3.70;;;-1.20;99.90;;;;;;5025896;28;20104;-66
2021/12/06 06:57:08;;;;;;;11.60;3.80;;;-1.40;99.90;;;;;;5023960;28;20088;-65
2021/12/06 06:59:34;;;;;;;11.85;5.35;;;-1.40;99.90;;;;;;5024246;28;20034;-65
2021/12/06 07:02:00;;;;;;;7.15;4.30;;;-1.30;99.90;;;;;;5022411;28;20030;-66
2021/12/06 07:04:26;;;;;;;11.38;4.60;;;-1.40;99.90;;;;;;5025811;28;20105;-66
2021/12/06 07:06:52;;;;;;;10.52;4.60;;;-1.40;99.90;;;;;;5026929;28;20107;-66
2021/12/06 07:09:18;;;;;;;8.52;3.92;;;-1.30;99.90;;;;;;5020656;28;20044;-65
2021/12/06 07:11:45;;;;;;;10.82;5.00;;;-1.20;99.90;;;;;;5024799;28;20109;-66
2021/12/06 07:14:15;;;;;;;17.08;5.43;;;-1.10;99.90;;;;;;5018575;28;20088;-65
2021/12/06 07:16:43;;;;;;;7.47;3.90;;;-0.90;99.90;;;;;;5019951;28;20056;-66
2021/12/06 07:19:09;;;;;;;6.90;3.38;;;-1.00;99.90;;;;;;5028816;28;20025;-65
2021/12/06 07:21:36;;;;;;;4.88;3.03;;;-0.90;99.90;;;;;;5025958;28;20382;-65
2021/12/06 07:24:03;;;;;;;9.68;4.20;;;-0.80;99.90;;;;;;5021152;28;20033;-65
2021/12/06 07:26:29;;;;;;;6.75;3.33;;;-0.90;99.90;;;;;;5018659;28;20029;-66
2021/12/06 07:28:55;;;;;;;21.05;5.28;;;-0.80;99.90;;;;;;5027126;28;20442;-66
2021/12/06 07:31:23;;;;;;;10.25;4.88;;;-0.80;99.90;;;;;;5026032;28;20022;-66
2021/12/06 07:33:50;;;;;;;8.52;4.63;;;-0.70;99.90;;;;;;5017423;28;20033;-66
2021/12/06 07:36:17;;;;;;;10.13;4.05;;;-0.70;99.90;;;;;;5027029;28;20013;-66
2021/12/06 07:38:43;;;;;;;14.65;5.47;;;-0.70;99.90;;;;;;5026505;28;20021;-66
2021/12/06 07:41:13;;;;;;;16.65;5.90;;;-0.70;99.90;;;;;;5026460;28;20104;-66
2021/12/06 07:43:39;;;;;;;11.10;4.43;;;-0.70;99.90;;;;;;5026265;28;20052;-66
2021/12/06 07:46:06;;;;;;;7.80;3.60;;;-0.70;99.90;;;;;;5024664;28;20037;-66
2021/12/06 07:48:32;;;;;;;10.15;3.28;;;-0.70;99.90;;;;;;5019285;28;20037;-65
2021/12/06 07:50:59;;;;;;;11.43;6.22;;;-0.70;99.90;;;;;;5019475;28;20171;-65
2021/12/06 07:53:26;;;;;;;6.20;3.17;;;-0.80;99.90;;;;;;5025044;28;20017;-66
2021/12/06 07:55:52;;;;;;;8.93;4.10;;;-0.90;99.90;;;;;;5023981;28;20025;-66
2021/12/06 07:58:18;;;;;;;12.88;5.00;;;-0.90;99.90;;;;;;5021886;28;20596;-66
2021/12/06 08:00:46;;;;;;;6.72;3.83;;;-0.90;99.90;;;;;;5002978;28;20029;-66
2021/12/06 08:03:13;;;;;;;11.02;4.22;;;-0.90;99.90;;;;;;5019454;28;20585;-66
2021/12/06 08:05:42;;;;;;;5.57;3.00;;;-1.00;99.90;;;;;;5027471;28;20026;-66
2021/12/06 08:08:15;;;;;;;10.77;3.33;;;-0.80;99.90;;;;;;5021171;28;20045;-66
2021/12/06 08:10:50;;;;;;;5.93;3.70;;;-0.70;99.90;;;;;;5032247;28;20060;-65
2021/12/06 08:13:19;;;;;;;8.75;4.07;;;-0.70;99.90;;;;;;5026152;28;20018;-65
2021/12/06 08:15:45;;;;;;;14.05;4.05;;;-0.60;99.90;;;;;;5027068;28;20025;-65
2021/12/06 08:18:14;;;;;;;7.00;2.45;;;-0.40;99.90;;;;;;5026774;28;20389;-66
2021/12/06 08:20:41;;;;;;;8.23;3.55;;;-0.40;99.90;;;;;;5031926;28;20021;-66
2021/12/06 08:23:07;;;;;;;9.60;2.95;;;-0.40;99.90;;;;;;5023002;28;20028;-66
2021/12/06 08:25:34;;;;;;;12.55;2.88;;;-0.40;99.90;;;;;;5028782;28;20064;-66
2021/12/06 08:28:00;;;;;;;10.57;4.43;;;-0.30;99.90;;;;;;5022744;28;20029;-66
2021/12/06 08:30:26;;;;;;;8.05;3.35;;;-0.20;99.90;;;;;;5027213;28;20037;-66
2021/12/06 08:32:56;;;;;;;8.38;3.50;;;-0.30;99.90;;;;;;5014829;28;20946;-66
2021/12/06 08:35:22;;;;;;;4.70;2.38;;;-0.20;99.90;;;;;;5008088;28;20044;-66
2021/12/06 08:37:48;;;;;;;7.28;4.07;;;-0.30;99.90;;;;;;5023423;28;20744;-66
2021/12/06 08:40:16;;;;;;;8.95;2.65;;;-0.40;99.90;;;;;;5016904;28;20105;-66
2021/12/06 08:42:41;;;;;;;7.88;3.92;;;-0.20;99.90;;;;;;5018323;28;20025;-65
2021/12/06 08:45:08;;;;;;;6.43;3.13;;;-0.20;99.90;;;;;;5016539;28;20034;-65
2021/12/06 08:47:34;;;;;;;6.38;2.33;;;-0.10;99.90;;;;;;5021227;28;20103;-66
2021/12/06 08:49:59;;;;;;;6.88;3.75;;;0.10;99.90;;;;;;5014841;28;20096;-66
2021/12/06 08:52:28;;;;;;;6.88;2.42;;;0.50;99.90;;;;;;5016416;28;20735;-65
2021/12/06 08:54:53;;;;;;;12.15;4.45;;;1.10;99.90;;;;;;5014563;28;20029;-66
2021/12/06 08:57:19;;;;;;;13.85;3.97;;;1.50;99.90;;;;;;5018198;28;20048;-66
2021/12/06 08:59:45;;;;;;;6.10;2.88;;;1.70;99.90;;;;;;5015357;28;20061;-65
2021/12/06 09:02:10;;;;;;;7.45;2.72;;;1.80;99.90;;;;;;5014646;28;20022;-66
2021/12/06 09:04:39;;;;;;;4.68;2.60;;;2.20;99.90;;;;;;5015217;28;20026;-67
2021/12/06 09:07:12;;;;;;;9.00;4.13;;;2.50;99.90;;;;;;5014232;28;20204;-67
2021/12/06 09:09:45;;;;;;;11.85;3.72;;;2.50;99.90;;;;;;5011731;28;20108;-66
2021/12/06 09:12:20;;;;;;;13.00;3.35;;;3.30;99.90;;;;;;5011906;28;20571;-67
2021/12/06 09:14:46;;;;;;;8.20;2.97;;;4.00;99.90;;;;;;5022391;28;20060;-67
2021/12/06 09:17:14;;;;;;;13.80;3.67;;;4.20;99.90;;;;;;5008777;28;20493;-67
2021/12/06 09:19:41;;;;;;;10.25;4.32;;;4.20;99.90;;;;;;5014448;28;20033;-67
2021/12/06 09:22:06;;;;;;;10.00;4.68;;;4.60;99.90;;;;;;5016943;28;20083;-67
2021/12/06 09:24:33;;;;;;;27.55;3.70;;;5.00;99.90;;;;;;5015341;28;20034;-66
2021/12/06 09:27:00;;;;;;;14.85;4.05;;;5.30;99.90;;;;;;5021894;28;20115;-66
2021/12/06 09:29:27;;;;;;;11.35;3.85;;;5.50;99.90;;;;;;5011626;28;20076;-66
2021/12/06 09:31:55;;;;;;;12.43;4.28;;;5.40;99.90;;;;;;5015736;28;20133;-66
2021/12/06 09:34:21;;;;;;;10.43;4.70;;;4.60;99.90;;;;;;5017450;28;20061;-66
2021/12/06 09:36:47;;;;;;;10.60;4.97;;;4.60;99.90;;;;;;5012683;28;20029;-66
2021/12/06 09:39:14;;;;;;;9.00;4.00;;;5.30;99.90;;;;;;5007922;28;20076;-66
2021/12/06 09:41:41;;;;;;;11.75;3.78;;;6.10;99.90;;;;;;5007699;28;20109;-66
2021/12/06 09:44:09;;;;;;;11.40;3.63;;;7.20;99.90;;;;;;5012300;28;20036;-66
2021/12/06 09:46:36;;;;;;;12.85;4.13;;;7.80;99.90;;;;;;5020150;28;20504;-67
2021/12/06 09:49:07;;;;;;;9.40;3.72;;;8.60;99.90;;;;;;5024257;28;20092;-66
2021/12/06 09:51:33;;;;;;;9.35;3.90;;;8.60;99.90;;;;;;5014294;28;20025;-66
2021/12/06 09:53:59;;;;;;;10.32;3.65;;;9.30;99.90;;;;;;5010301;28;20084;-66
2021/12/06 09:56:32;;;;;;;12.15;4.35;;;7.50;99.90;;;;;;5016201;28;20034;-66
2021/12/06 09:59:00;;;;;;;11.40;4.22;;;7.80;99.90;;;;;;5011943;28;20022;-67
2021/12/06 10:01:33;;;;;;;9.95;3.88;;;7.80;99.90;;;;;;5015171;28;20116;-66
2021/12/06 10:04:02;;;;;;;12.15;3.33;;;7.70;99.90;;;;;;5015054;28;20017;-66
2021/12/06 10:06:30;;;;;;;13.15;4.25;;;8.30;99.90;;;;;;5009115;28;20128;-66
2021/12/06 10:08:57;;;;;;;10.23;4.07;;;9.10;99.90;;;;;;5014639;28;20779;-67
2021/12/06 10:11:25;;;;;;;10.27;4.47;;;9.80;99.90;;;;;;5008046;28;20788;-67
2021/12/06 10:13:51;;;;;;;10.20;3.83;;;10.50;99.90;;;;;;5012549;28;20064;-67
2021/12/06 10:16:18;;;;;;;11.85;4.07;;;10.00;99.90;;;;;;5020509;28;20108;-65
2021/12/06 10:18:44;;;;;;;8.15;3.20;;;9.20;99.90;;;;;;5020219;28;20049;-65
2021/12/06 10:21:10;;;;;;;13.52;3.50;;;9.20;99.90;;;;;;5019036;28;20053;-65
2021/12/06 10:23:38;;;;;;;7.40;2.88;;;9.10;99.90;;;;;;5020339;28;20039;-66
2021/12/06 10:26:05;;;;;;;9.35;3.03;;;10.10;99.90;;;;;;5021084;28;20033;-65
2021/12/06 10:28:32;;;;;;;9.23;2.90;;;10.30;99.90;;;;;;5018098;28;20032;-65
2021/12/06 10:31:01;;;;;;;6.57;2.17;;;9.60;99.90;;;;;;5019403;28;20792;-66
2021/12/06 10:33:30;;;;;;;7.47;3.17;;;9.30;99.90;;;;;;5014836;28;20527;-64
2021/12/06 10:36:09;;;;;;;8.35;3.53;;;8.50;99.90;;;;;;5017019;28;20088;-66
2021/12/06 10:38:38;;;;;;;12.23;3.30;;;8.00;99.90;;;;;;5012859;28;20029;-64
2021/12/06 10:41:16;;;;;;;6.35;2.35;;;7.70;99.90;;;;;;5015549;28;20029;-64
2021/12/06 10:44:05;;;;;;;11.70;4.18;;;7.90;99.90;;;;;;5007883;28;20058;-64
2021/12/06 10:46:33;;;;;;;8.75;3.13;;;7.30;99.90;;;;;;5013096;28;20033;-64
2021/12/06 10:49:03;;;;;;;8.25;3.20;;;7.40;99.90;;;;;;5017272;28;20070;-65
2021/12/06 10:51:29;;;;;;;6.70;3.03;;;7.50;99.90;;;;;;5014439;28;20034;-64
2021/12/06 10:54:05;;;;;;;4.53;2.22;;;7.70;99.90;;;;;;5016589;28;20053;-64
2021/12/06 10:56:43;;;;;;;10.13;4.10;;;7.90;99.90;;;;;;5019642;28;20025;-64
2021/12/06 10:59:17;;;;;;;9.52;3.83;;;7.70;99.90;;;;;;5012630;28;20079;-64
2021/12/06 11:01:45;;;;;;;17.05;3.80;;;7.50;99.90;;;;;;5020090;28;20113;-64
2021/12/06 11:04:13;;;;;;;6.97;3.67;;;7.30;99.90;;;;;;5020618;28;20057;-65
2021/12/06 11:06:51;;;;;;;9.70;3.92;;;7.70;99.90;;;;;;5019871;28;20534;-65
2021/12/06 11:09:21;;;;;;;10.70;4.13;;;8.40;99.90;;;;;;5019375;28;20075;-64
2021/12/06 11:11:50;;;;;;;9.00;4.00;;;9.00;99.90;;;;;;5020063;28;20056;-66
2021/12/06 11:14:26;;;;;;;13.05;4.65;;;8.50;99.90;;;;;;5016065;28;20061;-65
2021/12/06 11:16:55;;;;;;;8.88;3.88;;;9.60;99.90;;;;;;5017077;28;20033;-65
2021/12/06 11:19:23;;;;;;;8.45;3.65;;;10.20;99.90;;;;;;5018669;28;20109;-65
2021/12/06 11:21:59;;;;;;;9.45;3.72;;;10.70;99.90;;;;;;5020310;28;20108;-65
2021/12/06 11:24:30;;;;;;;9.73;4.32;;;9.80;99.90;;;;;;5018814;28;20470;-65
2021/12/06 11:27:06;;;;;;;9.05;3.55;;;8.50;99.90;;;;;;5020579;28;20041;-66
2021/12/06 11:29:41;;;;;;;6.55;2.90;;;9.70;99.90;;;;;;5019144;28;20037;-65
2021/12/06 11:32:09;;;;;;;8.10;3.50;;;9.40;99.90;;;;;;5021815;28;20068;-65
2021/12/06 11:34:38;;;;;;;8.73;3.42;;;10.20;99.90;;;;;;5015262;28;20083;-65
2021/12/06 11:37:12;;;;;;;10.32;4.45;;;10.60;99.90;;;;;;5018066;28;20508;-65
2021/12/06 11:39:38;;;;;;;12.07;3.78;;;9.70;99.90;;;;;;5022712;28;20084;-65
2021/12/06 11:42:03;;;;;;;12.48;4.07;;;9.20;99.90;;;;;;5026041;28;20063;-65
2021/12/06 11:44:35;;;;;;;13.00;4.20;;;9.00;99.90;;;;;;5017645;28;20033;-65
2021/12/06 11:47:10;;;;;;;10.13;3.58;;;9.50;99.90;;;;;;5021089;28;21041;-65
2021/12/06 11:49:40;;;;;;;10.07;3.45;;;10.10;99.90;;;;;;5021738;28;20099;-65
2021/12/06 11:52:09;;;;;;;11.10;4.05;;;9.00;99.90;;;;;;5024665;28;20667;-65
2021/12/06 11:54:38;;;;;;;10.97;3.70;;;8.40;99.90;;;;;;5024216;28;20112;-65
2021/12/06 11:57:29;;;;;;;10.27;3.50;;;7.80;99.90;;;;;;5021126;28;20049;-65
2021/12/06 12:00:06;;;;;;;9.75;3.33;;;7.10;99.90;;;;;;5018904;28;20040;-65
2021/12/06 12:02:43;;;;;;;10.00;4.07;;;6.70;99.90;;;;;;5013158;28;20076;-65
2021/12/06 12:05:27;;;;;;;11.23;3.63;;;6.50;99.90;;;;;;5021237;28;20119;-65
2021/12/06 12:07:58;;;;;;;14.00;4.13;;;6.80;99.90;;;;;;5016889;28;20137;-64
2021/12/06 12:10:49;;;;;;;11.10;4.40;;;6.70;99.90;;;;;;5010096;28;20072;-64
2021/12/06 12:13:31;;;;;;;12.52;4.72;;;6.70;99.90;;;;;;5010774;28;20042;-64
2021/12/06 12:16:10;;;;;;;9.27;3.90;;;6.70;99.90;;;;;;5011724;28;20630;-65
2021/12/06 12:18:38;;;;;;;13.82;4.70;;;6.30;99.90;;;;;;5011865;28;20033;-64
2021/12/06 12:21:05;;;;;;;9.57;4.38;;;6.50;99.90;;;;;;5017466;28;20037;-64
2021/12/06 12:23:32;;;;;;;17.88;4.15;;;7.30;99.90;;;;;;5018062;28;20034;-64
2021/12/06 12:26:07;;;;;;;10.55;4.03;;;8.30;99.90;;;;;;5021596;28;20107;-65
2021/12/06 12:28:37;;;;;;;12.25;4.75;;;9.40;99.90;;;;;;5021399;28;20055;-65
2021/12/06 12:31:04;;;;;;;;;;;10.70;99.90;;;;;;5016667;28;20057;-66
2021/12/06 12:33:30;;;;;;;12.13;4.82;;;11.70;99.90;;;;;;5017813;28;19923;-65
2021/12/06 12:36:05;;;;;;;11.27;4.25;;;11.90;99.90;;;;;;5015272;28;20156;-65
2021/12/06 12:38:34;;;;;;;10.95;3.83;;;11.10;99.90;;;;;;5016482;28;20026;-65
2021/12/06 12:41:13;;;;;;;10.82;3.75;;;10.20;99.90;;;;;;5020660;28;20025;-65
2021/12/06 12:43:52;;;;;;;15.00;4.63;;;11.20;99.90;;;;;;5019493;28;20674;-65
2021/12/06 12:46:30;;;;;;;10.97;3.23;;;11.60;99.90;;;;;;5019753;28;20029;-65
2021/12/06 12:49:00;;;;;;;9.10;2.85;;;11.60;99.90;;;;;;5021407;28;20059;-65
2021/12/06 12:51:35;;;;;;;10.55;4.00;;;11.70;99.90;;;;;;5018534;28;20034;-64
2021/12/06 12:54:06;;;;;;;12.07;4.30;;;11.40;99.90;;;;;;5024670;28;20033;-65
2021/12/06 12:56:33;;;;;;;;;;;11.50;99.90;;;;;;5020351;28;20033;-64
2021/12/06 12:59:15;;;;;;;8.88;3.10;;;12.40;99.90;;;;;;5022869;28;20357;-65
2021/12/06 13:01:45;;;;;;;7.70;2.85;;;12.10;99.90;;;;;;5021712;28;20055;-65
2021/12/06 13:04:12;;;;;;;8.32;2.67;;;13.00;99.90;;;;;;5021043;28;20396;-65
2021/12/06 13:06:40;;;;;;;8.65;3.28;;;14.10;99.90;;;;;;5013680;28;20490;-65
2021/12/06 13:09:19;;;;;;;7.72;2.38;;;13.60;99.90;;;;;;5015771;28;20104;-64